Hovedside
METAR-TAF:

METAR-TAF

Lufthavner :

Visby lufthavn

Visby, Gotland, Sverige

breddegrad: 57-40N, lengdegrad: 018-21E, høyde over havet: 51 m

Gjeldene værobservasjon

Denne rapporten ble laget for 16 minutter siden, klokken 04:50 UTC
Vind 10 kt fra Øst-sørøst
Temperatur 12°C
Luftfuktighet 54%
Trykk 1016 hPa
Sikt 10 km eller mer
ingen skyer under 1500 m og ingen bygeskyer

METAR: ESSV 250450Z 12010KT CAVOK 12/03 Q1016

Tid: 07:06 (05:06 UTC)

Varsel

Denne rapporten ble laget for 3 timer og 36 minutter siden, klokken 01:30 UTC
Varsel gyldig fra 25. klokken 02 UTC til 25. klokken 09 UTC
Vind 9 kt fra Øst-sørøst
Sikt 10 km eller mer
ingen skyer under 1500 m og ingen bygeskyer

TAF: ESSV 250130Z 2502/2509 11009KT CAVOK

Værobservasjoner og værvarsel for over 4000 flyplasser (METAR- og TAF-rapporter).

Tilgjengelige stasjoner er representert av de røde og gule prikkene på kartet.

Hold musepekeren over prikken for å se navnet på stasjonen.

Klikk så for å se værobservasjoner og -varsler.

For å forandre kartet kan du klikke på den grønne knappen med svart kryss for å zoome inn, på den grønne knappen med strek for å zoome ut, eller på de grønne pilene for å se tilstøtende kart.


METAR-TAF: